sensor_id;sensor_type;location;lat;lon;timestamp;temperature;humidity
26035;DHT22;13809;48.632;11.576;2023-06-10T00:02:23;22.80;26.70
26035;DHT22;13809;48.632;11.576;2023-06-10T00:07:27;22.70;27.10
26035;DHT22;13809;48.632;11.576;2023-06-10T00:12:30;22.60;26.90
26035;DHT22;13809;48.632;11.576;2023-06-10T00:17:38;22.60;27.10
26035;DHT22;13809;48.632;11.576;2023-06-10T00:22:42;22.40;26.90
26035;DHT22;13809;48.632;11.576;2023-06-10T00:27:48;22.30;26.90
26035;DHT22;13809;48.632;11.576;2023-06-10T00:32:53;22.30;26.90
26035;DHT22;13809;48.632;11.576;2023-06-10T00:37:56;22.20;27.20
26035;DHT22;13809;48.632;11.576;2023-06-10T00:42:59;22.20;26.80
26035;DHT22;13809;48.632;11.576;2023-06-10T00:48:04;22.20;27.10
26035;DHT22;13809;48.632;11.576;2023-06-10T00:53:08;22.10;27.50
26035;DHT22;13809;48.632;11.576;2023-06-10T00:58:12;22.10;27.20
26035;DHT22;13809;48.632;11.576;2023-06-10T01:03:17;22.00;27.20
26035;DHT22;13809;48.632;11.576;2023-06-10T01:08:28;22.00;27.70
26035;DHT22;13809;48.632;11.576;2023-06-10T01:13:36;21.90;28.20
26035;DHT22;13809;48.632;11.576;2023-06-10T01:18:44;21.90;27.80
26035;DHT22;13809;48.632;11.576;2023-06-10T01:23:48;21.80;28.50
26035;DHT22;13809;48.632;11.576;2023-06-10T01:28:54;21.80;27.90
26035;DHT22;13809;48.632;11.576;2023-06-10T01:33:58;21.70;28.10
26035;DHT22;13809;48.632;11.576;2023-06-10T01:39:04;21.60;27.80
26035;DHT22;13809;48.632;11.576;2023-06-10T01:44:07;21.60;28.20
26035;DHT22;13809;48.632;11.576;2023-06-10T01:49:11;21.50;27.90
26035;DHT22;13809;48.632;11.576;2023-06-10T01:54:15;21.40;28.10
26035;DHT22;13809;48.632;11.576;2023-06-10T01:59:19;21.40;28.40
26035;DHT22;13809;48.632;11.576;2023-06-10T02:04:22;21.30;28.20
26035;DHT22;13809;48.632;11.576;2023-06-10T02:09:26;21.20;28.20
26035;DHT22;13809;48.632;11.576;2023-06-10T02:14:31;21.10;28.70
26035;DHT22;13809;48.632;11.576;2023-06-10T02:19:35;21.00;28.40
26035;DHT22;13809;48.632;11.576;2023-06-10T02:24:40;20.90;28.60
26035;DHT22;13809;48.632;11.576;2023-06-10T02:29:44;20.90;28.90
26035;DHT22;13809;48.632;11.576;2023-06-10T02:34:47;20.80;28.50
26035;DHT22;13809;48.632;11.576;2023-06-10T02:39:52;20.80;28.80
26035;DHT22;13809;48.632;11.576;2023-06-10T02:44:55;20.70;29.10
26035;DHT22;13809;48.632;11.576;2023-06-10T02:49:58;20.60;28.70
26035;DHT22;13809;48.632;11.576;2023-06-10T02:55:03;20.50;28.70
26035;DHT22;13809;48.632;11.576;2023-06-10T03:00:08;20.50;29.20
26035;DHT22;13809;48.632;11.576;2023-06-10T03:05:13;20.40;29.30
26035;DHT22;13809;48.632;11.576;2023-06-10T03:10:18;20.30;29.20
26035;DHT22;13809;48.632;11.576;2023-06-10T03:15:21;20.20;29.60
26035;DHT22;13809;48.632;11.576;2023-06-10T03:20:24;20.20;29.30
26035;DHT22;13809;48.632;11.576;2023-06-10T03:25:29;20.10;29.30
26035;DHT22;13809;48.632;11.576;2023-06-10T03:30:32;20.10;29.80
26035;DHT22;13809;48.632;11.576;2023-06-10T03:35:35;20.00;29.30
26035;DHT22;13809;48.632;11.576;2023-06-10T03:40:40;19.90;30.30
26035;DHT22;13809;48.632;11.576;2023-06-10T03:45:43;19.80;30.00
26035;DHT22;13809;48.632;11.576;2023-06-10T03:50:47;19.80;29.80
26035;DHT22;13809;48.632;11.576;2023-06-10T03:55:53;19.80;29.80
26035;DHT22;13809;48.632;11.576;2023-06-10T04:00:59;19.70;30.30
26035;DHT22;13809;48.632;11.576;2023-06-10T04:06:02;19.60;30.00
26035;DHT22;13809;48.632;11.576;2023-06-10T04:11:08;19.60;30.10
26035;DHT22;13809;48.632;11.576;2023-06-10T04:16:11;19.60;30.70
26035;DHT22;13809;48.632;11.576;2023-06-10T04:21:14;19.60;30.60
26035;DHT22;13809;48.632;11.576;2023-06-10T04:26:19;19.60;30.80
26035;DHT22;13809;48.632;11.576;2023-06-10T04:31:22;19.70;31.30
26035;DHT22;13809;48.632;11.576;2023-06-10T04:36:25;19.70;31.10
26035;DHT22;13809;48.632;11.576;2023-06-10T04:41:30;19.70;31.50
26035;DHT22;13809;48.632;11.576;2023-06-10T04:46:33;19.80;32.70
26035;DHT22;13809;48.632;11.576;2023-06-10T04:51:36;19.80;32.40
26035;DHT22;13809;48.632;11.576;2023-06-10T04:56:41;19.90;32.40
26035;DHT22;13809;48.632;11.576;2023-06-10T05:01:44;19.90;33.30
26035;DHT22;13809;48.632;11.576;2023-06-10T05:06:47;20.00;32.90
26035;DHT22;13809;48.632;11.576;2023-06-10T05:11:54;20.00;33.10
26035;DHT22;13809;48.632;11.576;2023-06-10T05:16:57;20.10;33.80
26035;DHT22;13809;48.632;11.576;2023-06-10T05:22:00;20.20;33.40
26035;DHT22;13809;48.632;11.576;2023-06-10T05:27:05;20.30;33.50
26035;DHT22;13809;48.632;11.576;2023-06-10T05:32:10;20.40;34.50
26035;DHT22;13809;48.632;11.576;2023-06-10T05:37:14;20.60;34.00
26035;DHT22;13809;48.632;11.576;2023-06-10T05:42:18;20.70;34.00
26035;DHT22;13809;48.632;11.576;2023-06-10T05:47:21;20.80;34.80
26035;DHT22;13809;48.632;11.576;2023-06-10T05:52:25;20.90;34.10
26035;DHT22;13809;48.632;11.576;2023-06-10T05:57:29;21.00;34.30
26035;DHT22;13809;48.632;11.576;2023-06-10T06:02:32;21.10;34.90
26035;DHT22;13809;48.632;11.576;2023-06-10T06:07:36;21.30;34.50
26035;DHT22;13809;48.632;11.576;2023-06-10T06:12:40;21.40;34.60
26035;DHT22;13809;48.632;11.576;2023-06-10T06:17:43;21.50;35.10
26035;DHT22;13809;48.632;11.576;2023-06-10T06:22:47;21.70;34.70
26035;DHT22;13809;48.632;11.576;2023-06-10T06:27:51;21.80;34.60
26035;DHT22;13809;48.632;11.576;2023-06-10T06:32:55;22.00;35.10
26035;DHT22;13809;48.632;11.576;2023-06-10T06:37:58;22.10;34.50
26035;DHT22;13809;48.632;11.576;2023-06-10T06:43:03;22.30;34.70
26035;DHT22;13809;48.632;11.576;2023-06-10T06:48:06;22.40;35.00
26035;DHT22;13809;48.632;11.576;2023-06-10T06:53:10;22.60;34.60
26035;DHT22;13809;48.632;11.576;2023-06-10T06:58:14;22.80;34.60
26035;DHT22;13809;48.632;11.576;2023-06-10T07:03:17;22.90;34.90
26035;DHT22;13809;48.632;11.576;2023-06-10T07:08:21;23.00;34.30
26035;DHT22;13809;48.632;11.576;2023-06-10T07:13:25;23.20;34.30
26035;DHT22;13809;48.632;11.576;2023-06-10T07:18:28;23.30;34.70
26035;DHT22;13809;48.632;11.576;2023-06-10T07:23:31;23.40;34.20
26035;DHT22;13809;48.632;11.576;2023-06-10T07:28:36;23.60;34.00
26035;DHT22;13809;48.632;11.576;2023-06-10T07:33:39;23.80;34.10
26035;DHT22;13809;48.632;11.576;2023-06-10T07:38:43;24.00;33.70
26035;DHT22;13809;48.632;11.576;2023-06-10T07:43:47;24.20;33.50
26035;DHT22;13809;48.632;11.576;2023-06-10T07:48:56;24.40;33.10
26035;DHT22;13809;48.632;11.576;2023-06-10T07:53:59;24.50;33.00
26035;DHT22;13809;48.632;11.576;2023-06-10T07:59:04;24.70;33.00
26035;DHT22;13809;48.632;11.576;2023-06-10T08:04:07;24.90;32.60
26035;DHT22;13809;48.632;11.576;2023-06-10T08:09:10;25.20;32.30
26035;DHT22;13809;48.632;11.576;2023-06-10T08:14:16;25.30;31.90
26035;DHT22;13809;48.632;11.576;2023-06-10T08:19:19;25.40;31.70
26035;DHT22;13809;48.632;11.576;2023-06-10T08:24:22;25.40;31.50
26035;DHT22;13809;48.632;11.576;2023-06-10T08:29:27;25.40;31.30
26035;DHT22;13809;48.632;11.576;2023-06-10T08:34:33;25.40;31.00
26035;DHT22;13809;48.632;11.576;2023-06-10T08:39:37;25.40;31.00
26035;DHT22;13809;48.632;11.576;2023-06-10T08:44:42;25.40;31.10
26035;DHT22;13809;48.632;11.576;2023-06-10T08:49:47;25.50;31.20
26035;DHT22;13809;48.632;11.576;2023-06-10T08:54:57;25.70;30.40
26035;DHT22;13809;48.632;11.576;2023-06-10T09:00:02;25.90;29.70
26035;DHT22;13809;48.632;11.576;2023-06-10T09:05:07;26.00;29.60
26035;DHT22;13809;48.632;11.576;2023-06-10T09:10:11;26.10;29.60
26035;DHT22;13809;48.632;11.576;2023-06-10T09:15:16;26.30;29.40
26035;DHT22;13809;48.632;11.576;2023-06-10T09:20:20;26.60;29.50
26035;DHT22;13809;48.632;11.576;2023-06-10T09:25:34;26.90;29.70
26035;DHT22;13809;48.632;11.576;2023-06-10T09:30:40;27.10;28.70
26035;DHT22;13809;48.632;11.576;2023-06-10T09:35:47;27.30;28.30
26035;DHT22;13809;48.632;11.576;2023-06-10T09:40:51;27.40;28.20
26035;DHT22;13809;48.632;11.576;2023-06-10T09:45:57;27.40;28.40
26035;DHT22;13809;48.632;11.576;2023-06-10T09:51:00;27.40;27.70
26035;DHT22;13809;48.632;11.576;2023-06-10T09:56:04;27.30;28.10
26035;DHT22;13809;48.632;11.576;2023-06-10T10:01:13;27.30;28.70
26035;DHT22;13809;48.632;11.576;2023-06-10T10:06:18;27.30;27.90
26035;DHT22;13809;48.632;11.576;2023-06-10T10:11:23;27.30;28.00
26035;DHT22;13809;48.632;11.576;2023-06-10T10:16:33;27.20;27.90
26035;DHT22;13809;48.632;11.576;2023-06-10T10:21:44;27.10;27.70
26035;DHT22;13809;48.632;11.576;2023-06-10T10:26:54;27.10;27.90
26035;DHT22;13809;48.632;11.576;2023-06-10T10:32:04;27.00;27.70
26035;DHT22;13809;48.632;11.576;2023-06-10T10:37:08;26.90;27.70
26035;DHT22;13809;48.632;11.576;2023-06-10T10:42:12;26.90;28.10
26035;DHT22;13809;48.632;11.576;2023-06-10T10:47:21;26.90;28.10
26035;DHT22;13809;48.632;11.576;2023-06-10T10:52:25;26.80;27.80
26035;DHT22;13809;48.632;11.576;2023-06-10T10:57:30;26.70;27.90
26035;DHT22;13809;48.632;11.576;2023-06-10T11:02:36;26.60;28.00
26035;DHT22;13809;48.632;11.576;2023-06-10T11:07:52;26.60;28.00
26035;DHT22;13809;48.632;11.576;2023-06-10T11:12:56;26.60;27.80
26035;DHT22;13809;48.632;11.576;2023-06-10T11:18:08;26.70;28.10
26035;DHT22;13809;48.632;11.576;2023-06-10T11:23:25;26.70;27.70
26035;DHT22;13809;48.632;11.576;2023-06-10T11:28:29;26.70;27.60
26035;DHT22;13809;48.632;11.576;2023-06-10T11:33:34;26.70;27.80
26035;DHT22;13809;48.632;11.576;2023-06-10T11:38:41;26.70;27.90
26035;DHT22;13809;48.632;11.576;2023-06-10T11:43:46;26.70;27.80
26035;DHT22;13809;48.632;11.576;2023-06-10T11:48:52;26.70;27.80
26035;DHT22;13809;48.632;11.576;2023-06-10T11:53:55;26.70;27.70
26035;DHT22;13809;48.632;11.576;2023-06-10T11:59:00;26.70;27.90
26035;DHT22;13809;48.632;11.576;2023-06-10T12:04:08;26.80;28.00
26035;DHT22;13809;48.632;11.576;2023-06-10T12:09:19;26.80;27.50
26035;DHT22;13809;48.632;11.576;2023-06-10T12:14:52;27.00;27.50
26035;DHT22;13809;48.632;11.576;2023-06-10T12:20:02;27.10;27.50
26035;DHT22;13809;48.632;11.576;2023-06-10T12:25:07;27.20;27.30
26035;DHT22;13809;48.632;11.576;2023-06-10T12:30:18;27.30;27.50
26035;DHT22;13809;48.632;11.576;2023-06-10T12:35:24;27.50;27.20
26035;DHT22;13809;48.632;11.576;2023-06-10T12:40:28;27.60;26.80
26035;DHT22;13809;48.632;11.576;2023-06-10T12:45:32;27.70;27.10
26035;DHT22;13809;48.632;11.576;2023-06-10T12:50:39;27.80;27.20
26035;DHT22;13809;48.632;11.576;2023-06-10T12:55:43;27.90;26.80
26035;DHT22;13809;48.632;11.576;2023-06-10T13:00:47;28.00;26.70
26035;DHT22;13809;48.632;11.576;2023-06-10T13:05:52;28.10;26.60
26035;DHT22;13809;48.632;11.576;2023-06-10T13:10:55;28.20;26.50
26035;DHT22;13809;48.632;11.576;2023-06-10T13:15:58;28.20;26.40
26035;DHT22;13809;48.632;11.576;2023-06-10T13:21:04;28.30;26.10
26035;DHT22;13809;48.632;11.576;2023-06-10T13:26:07;28.20;25.80
26035;DHT22;13809;48.632;11.576;2023-06-10T13:31:11;28.10;26.00
26035;DHT22;13809;48.632;11.576;2023-06-10T13:36:15;28.10;26.10
26035;DHT22;13809;48.632;11.576;2023-06-10T13:41:18;28.10;25.90
26035;DHT22;13809;48.632;11.576;2023-06-10T13:46:22;28.10;26.00
26035;DHT22;13809;48.632;11.576;2023-06-10T13:51:26;28.20;26.30
26035;DHT22;13809;48.632;11.576;2023-06-10T13:56:29;28.20;26.30
26035;DHT22;13809;48.632;11.576;2023-06-10T14:01:33;28.40;26.40
26035;DHT22;13809;48.632;11.576;2023-06-10T14:06:41;28.50;25.60
26035;DHT22;13809;48.632;11.576;2023-06-10T14:11:45;28.70;25.00
26035;DHT22;13809;48.632;11.576;2023-06-10T14:16:49;28.80;25.30
26035;DHT22;13809;48.632;11.576;2023-06-10T14:21:54;28.80;25.30
26035;DHT22;13809;48.632;11.576;2023-06-10T14:26:58;28.90;25.00
26035;DHT22;13809;48.632;11.576;2023-06-10T14:32:01;28.90;25.20
26035;DHT22;13809;48.632;11.576;2023-06-10T14:37:11;28.90;25.10
26035;DHT22;13809;48.632;11.576;2023-06-10T14:42:14;28.90;25.00
26035;DHT22;13809;48.632;11.576;2023-06-10T14:47:17;28.80;25.10
26035;DHT22;13809;48.632;11.576;2023-06-10T14:52:22;28.70;25.10
26035;DHT22;13809;48.632;11.576;2023-06-10T14:57:25;28.70;25.20
26035;DHT22;13809;48.632;11.576;2023-06-10T15:02:28;28.70;25.20
26035;DHT22;13809;48.632;11.576;2023-06-10T15:07:33;28.70;24.90
26035;DHT22;13809;48.632;11.576;2023-06-10T15:12:39;28.70;25.00
26035;DHT22;13809;48.632;11.576;2023-06-10T15:17:42;28.80;24.70
26035;DHT22;13809;48.632;11.576;2023-06-10T15:22:47;28.90;25.00
26035;DHT22;13809;48.632;11.576;2023-06-10T15:27:50;29.00;25.40
26035;DHT22;13809;48.632;11.576;2023-06-10T15:32:53;28.80;25.60
26035;DHT22;13809;48.632;11.576;2023-06-10T15:37:58;28.50;25.80
26035;DHT22;13809;48.632;11.576;2023-06-10T15:43:02;28.00;26.00
26035;DHT22;13809;48.632;11.576;2023-06-10T15:48:08;27.60;26.40
26035;DHT22;13809;48.632;11.576;2023-06-10T15:53:12;27.30;27.70
26035;DHT22;13809;48.632;11.576;2023-06-10T15:58:16;27.10;27.00
26035;DHT22;13809;48.632;11.576;2023-06-10T16:03:19;27.00;27.20
26035;DHT22;13809;48.632;11.576;2023-06-10T16:08:23;27.00;27.70
26035;DHT22;13809;48.632;11.576;2023-06-10T16:13:27;27.00;27.80
26035;DHT22;13809;48.632;11.576;2023-06-10T16:18:30;27.10;27.90
26035;DHT22;13809;48.632;11.576;2023-06-10T16:23:35;27.10;28.00
26035;DHT22;13809;48.632;11.576;2023-06-10T16:28:39;27.10;28.10
26035;DHT22;13809;48.632;11.576;2023-06-10T16:33:42;27.10;28.10
26035;DHT22;13809;48.632;11.576;2023-06-10T16:38:47;27.10;28.20
26035;DHT22;13809;48.632;11.576;2023-06-10T16:43:50;27.10;28.30
26035;DHT22;13809;48.632;11.576;2023-06-10T16:48:53;27.10;28.30
26035;DHT22;13809;48.632;11.576;2023-06-10T16:53:58;27.00;28.20
26035;DHT22;13809;48.632;11.576;2023-06-10T16:59:01;27.00;28.40
26035;DHT22;13809;48.632;11.576;2023-06-10T17:04:04;26.90;28.40
26035;DHT22;13809;48.632;11.576;2023-06-10T17:09:08;26.90;28.60
26035;DHT22;13809;48.632;11.576;2023-06-10T17:14:12;26.90;28.60
26035;DHT22;13809;48.632;11.576;2023-06-10T17:19:15;26.80;28.30
26035;DHT22;13809;48.632;11.576;2023-06-10T17:24:20;26.80;28.90
26035;DHT22;13809;48.632;11.576;2023-06-10T17:29:23;26.70;28.50
26035;DHT22;13809;48.632;11.576;2023-06-10T17:34:26;26.70;28.50
26035;DHT22;13809;48.632;11.576;2023-06-10T17:39:33;26.60;28.50
26035;DHT22;13809;48.632;11.576;2023-06-10T17:44:37;26.60;28.90
26035;DHT22;13809;48.632;11.576;2023-06-10T17:49:40;26.60;28.70
26035;DHT22;13809;48.632;11.576;2023-06-10T17:54:44;26.60;28.80
26035;DHT22;13809;48.632;11.576;2023-06-10T17:59:48;26.60;29.10
26035;DHT22;13809;48.632;11.576;2023-06-10T18:04:51;26.60;28.90
26035;DHT22;13809;48.632;11.576;2023-06-10T18:09:55;26.60;28.80
26035;DHT22;13809;48.632;11.576;2023-06-10T18:14:59;26.60;29.10
26035;DHT22;13809;48.632;11.576;2023-06-10T18:20:02;26.50;29.00
26035;DHT22;13809;48.632;11.576;2023-06-10T18:25:07;26.50;29.00
26035;DHT22;13809;48.632;11.576;2023-06-10T18:30:11;26.40;29.40
26035;DHT22;13809;48.632;11.576;2023-06-10T18:35:15;26.40;29.40
26035;DHT22;13809;48.632;11.576;2023-06-10T18:40:19;26.30;29.40
26035;DHT22;13809;48.632;11.576;2023-06-10T18:45:23;26.30;29.40
26035;DHT22;13809;48.632;11.576;2023-06-10T18:50:26;26.30;29.40
26035;DHT22;13809;48.632;11.576;2023-06-10T18:55:33;26.20;29.30
26035;DHT22;13809;48.632;11.576;2023-06-10T19:00:38;26.10;29.20
26035;DHT22;13809;48.632;11.576;2023-06-10T19:05:41;26.10;29.20
26035;DHT22;13809;48.632;11.576;2023-06-10T19:10:46;26.00;29.20
26035;DHT22;13809;48.632;11.576;2023-06-10T19:15:49;26.00;29.20
26035;DHT22;13809;48.632;11.576;2023-06-10T19:20:52;25.90;29.10
26035;DHT22;13809;48.632;11.576;2023-06-10T19:25:57;25.80;29.10
26035;DHT22;13809;48.632;11.576;2023-06-10T19:31:01;25.80;29.60
26035;DHT22;13809;48.632;11.576;2023-06-10T19:36:05;25.70;29.40
26035;DHT22;13809;48.632;11.576;2023-06-10T19:41:10;25.50;29.50
26035;DHT22;13809;48.632;11.576;2023-06-10T19:46:13;25.40;29.90
26035;DHT22;13809;48.632;11.576;2023-06-10T19:51:19;25.30;29.70
26035;DHT22;13809;48.632;11.576;2023-06-10T19:56:25;25.30;30.00
26035;DHT22;13809;48.632;11.576;2023-06-10T20:01:30;25.20;30.20
26035;DHT22;13809;48.632;11.576;2023-06-10T20:06:33;25.20;30.00
26035;DHT22;13809;48.632;11.576;2023-06-10T20:11:38;25.10;30.00
26035;DHT22;13809;48.632;11.576;2023-06-10T20:17:03;25.00;30.40
26035;DHT22;13809;48.632;11.576;2023-06-10T20:22:06;24.90;30.50
26035;DHT22;13809;48.632;11.576;2023-06-10T20:27:10;24.80;30.10
26035;DHT22;13809;48.632;11.576;2023-06-10T20:32:14;24.70;30.30
26035;DHT22;13809;48.632;11.576;2023-06-10T20:37:17;24.60;30.00
26035;DHT22;13809;48.632;11.576;2023-06-10T20:42:31;24.40;30.20
26035;DHT22;13809;48.632;11.576;2023-06-10T21:06:40;23.80;30.50
26035;DHT22;13809;48.632;11.576;2023-06-10T21:11:44;23.60;30.50
26035;DHT22;13809;48.632;11.576;2023-06-10T21:16:48;23.40;30.70
26035;DHT22;13809;48.632;11.576;2023-06-10T21:21:52;23.30;31.30
26035;DHT22;13809;48.632;11.576;2023-06-10T21:26:55;23.20;31.10
26035;DHT22;13809;48.632;11.576;2023-06-10T21:32:00;23.20;31.40
26035;DHT22;13809;48.632;11.576;2023-06-10T21:37:03;23.20;31.90
26035;DHT22;13809;48.632;11.576;2023-06-10T21:42:07;23.10;31.50
26035;DHT22;13809;48.632;11.576;2023-06-10T21:47:13;23.00;31.70
26035;DHT22;13809;48.632;11.576;2023-06-10T21:52:16;23.00;32.10
26035;DHT22;13809;48.632;11.576;2023-06-10T21:57:21;22.90;31.90
26035;DHT22;13809;48.632;11.576;2023-06-10T22:02:26;22.80;32.30
26035;DHT22;13809;48.632;11.576;2023-06-10T22:07:30;22.80;32.50
26035;DHT22;13809;48.632;11.576;2023-06-10T22:12:33;22.70;32.10
26035;DHT22;13809;48.632;11.576;2023-06-10T22:17:38;22.60;32.30
26035;DHT22;13809;48.632;11.576;2023-06-10T22:22:41;22.60;32.60
26035;DHT22;13809;48.632;11.576;2023-06-10T22:27:44;22.60;32.40
26035;DHT22;13809;48.632;11.576;2023-06-10T22:32:49;22.50;32.30
26035;DHT22;13809;48.632;11.576;2023-06-10T22:37:52;22.50;32.70
26035;DHT22;13809;48.632;11.576;2023-06-10T22:42:57;22.40;32.40
26035;DHT22;13809;48.632;11.576;2023-06-10T22:48:02;22.40;32.90
26035;DHT22;13809;48.632;11.576;2023-06-10T22:53:06;22.30;32.90
26035;DHT22;13809;48.632;11.576;2023-06-10T22:58:09;22.20;32.50
26035;DHT22;13809;48.632;11.576;2023-06-10T23:03:13;22.10;32.70
26035;DHT22;13809;48.632;11.576;2023-06-10T23:08:17;22.00;33.20
26035;DHT22;13809;48.632;11.576;2023-06-10T23:13:20;22.00;33.00
26035;DHT22;13809;48.632;11.576;2023-06-10T23:18:24;21.90;33.20
26035;DHT22;13809;48.632;11.576;2023-06-10T23:23:28;21.80;33.70
26035;DHT22;13809;48.632;11.576;2023-06-10T23:28:35;21.70;33.40
26035;DHT22;13809;48.632;11.576;2023-06-10T23:33:40;21.60;33.30
26035;DHT22;13809;48.632;11.576;2023-06-10T23:38:43;21.60;33.70
26035;DHT22;13809;48.632;11.576;2023-06-10T23:43:46;21.50;33.40
26035;DHT22;13809;48.632;11.576;2023-06-10T23:48:51;21.50;33.50
26035;DHT22;13809;48.632;11.576;2023-06-10T23:53:54;21.50;33.70
26035;DHT22;13809;48.632;11.576;2023-06-10T23:58:57;21.50;33.50
